createdAt,value
2023-04-27T00:00:11.491Z,32.50
2023-04-27T00:00:33.167Z,32.36
2023-04-27T00:00:56.000Z,32.73
2023-04-27T00:01:17.669Z,32.95
2023-04-27T00:01:39.415Z,32.90
2023-04-27T00:02:01.933Z,32.86
2023-04-27T00:02:23.902Z,32.91
2023-04-27T00:02:46.799Z,32.70
2023-04-27T00:03:08.770Z,32.80
2023-04-27T00:03:30.940Z,32.52
2023-04-27T00:03:53.326Z,32.44
2023-04-27T00:04:16.645Z,32.41
2023-04-27T00:04:38.793Z,32.54
2023-04-27T00:05:02.516Z,32.56
2023-04-27T00:05:24.583Z,32.43
2023-04-27T00:05:47.393Z,32.88
2023-04-27T00:06:09.645Z,32.84
2023-04-27T00:06:32.536Z,32.85
2023-04-27T00:06:54.357Z,32.82
2023-04-27T00:07:15.939Z,32.77
2023-04-27T00:07:38.558Z,33.18
2023-04-27T00:08:00.245Z,32.98
2023-04-27T00:08:22.080Z,33.15
2023-04-27T00:08:43.925Z,33.24
2023-04-27T00:09:06.746Z,33.19
2023-04-27T00:09:28.296Z,33.29
2023-04-27T00:09:51.770Z,32.85
2023-04-27T00:10:15.748Z,32.96
2023-04-27T00:10:37.443Z,33.36
2023-04-27T00:10:59.383Z,32.86
2023-04-27T00:11:22.576Z,33.23
2023-04-27T00:11:45.314Z,32.90
2023-04-27T00:12:07.073Z,32.99
2023-04-27T00:12:28.937Z,32.70
2023-04-27T00:12:51.564Z,32.86
2023-04-27T00:13:58.762Z,32.18
2023-04-27T00:14:21.529Z,32.50
2023-04-27T00:14:43.226Z,32.21
2023-04-27T00:15:05.963Z,32.24
2023-04-27T00:15:27.854Z,32.16
2023-04-27T00:15:50.609Z,33.12
2023-04-27T00:16:12.293Z,33.04
2023-04-27T00:16:34.128Z,32.77
2023-04-27T00:16:56.234Z,32.72
2023-04-27T00:17:18.823Z,33.05
2023-04-27T00:17:40.900Z,32.85
2023-04-27T00:18:02.717Z,33.13
2023-04-27T00:18:24.404Z,33.20
2023-04-27T00:18:46.003Z,33.61
2023-04-27T00:19:08.949Z,33.33
2023-04-27T00:19:30.696Z,33.09
2023-04-27T00:19:52.364Z,33.14
2023-04-27T00:20:14.117Z,32.75
2023-04-27T00:20:36.681Z,32.82
2023-04-27T00:20:58.515Z,32.69
2023-04-27T00:21:20.646Z,32.42
2023-04-27T00:21:42.568Z,33.09
2023-04-27T00:22:05.173Z,33.18
2023-04-27T00:22:26.846Z,33.39
2023-04-27T00:22:48.473Z,33.17
2023-04-27T00:23:10.296Z,33.20
2023-04-27T00:23:32.865Z,33.34
2023-04-27T00:23:54.720Z,33.30
2023-04-27T00:24:16.431Z,33.33
2023-04-27T00:24:38.069Z,33.31
2023-04-27T00:25:00.778Z,33.49
2023-04-27T00:25:23.728Z,33.39
2023-04-27T00:25:45.400Z,33.62
2023-04-27T00:26:07.075Z,33.65
2023-04-27T00:26:29.618Z,33.39
2023-04-27T00:26:51.366Z,33.78
2023-04-27T00:27:13.518Z,34.03
2023-04-27T00:27:35.682Z,33.84
2023-04-27T00:27:59.699Z,33.73
2023-04-27T00:28:21.605Z,33.78
2023-04-27T00:28:43.189Z,33.77
2023-04-27T00:29:04.799Z,33.89
2023-04-27T00:29:27.460Z,33.68
2023-04-27T00:29:49.305Z,33.57
2023-04-27T00:30:11.367Z,33.94
2023-04-27T00:30:32.983Z,33.46
2023-04-27T00:30:56.517Z,33.82
2023-04-27T00:31:19.460Z,33.38
2023-04-27T00:31:41.093Z,33.60
2023-04-27T00:32:02.860Z,33.49
2023-04-27T00:32:25.650Z,33.27
2023-04-27T00:32:47.876Z,32.90
2023-04-27T00:33:11.282Z,33.15
2023-04-27T00:33:32.855Z,33.02
2023-04-27T00:33:55.415Z,32.95
2023-04-27T00:34:18.226Z,33.02
2023-04-27T00:34:42.494Z,33.57
2023-04-27T00:35:04.688Z,33.26
2023-04-27T00:35:27.581Z,32.93
2023-04-27T00:35:49.220Z,33.05
2023-04-27T00:36:10.909Z,33.04
2023-04-27T00:36:33.674Z,33.20
2023-04-27T00:36:56.271Z,33.70
2023-04-27T00:37:18.707Z,33.82
2023-04-27T00:37:41.057Z,33.50
2023-04-27T00:38:03.088Z,33.27
2023-04-27T00:38:26.142Z,32.94
2023-04-27T00:38:47.794Z,33.18
2023-04-27T00:39:09.523Z,33.25
2023-04-27T00:39:34.235Z,33.25
2023-04-27T00:39:56.293Z,33.26
2023-04-27T00:40:19.082Z,33.36
2023-04-27T00:40:43.090Z,33.80
2023-04-27T00:41:06.539Z,33.76
2023-04-27T00:41:28.175Z,33.85
2023-04-27T00:41:49.865Z,34.21
2023-04-27T00:42:15.152Z,34.11
2023-04-27T00:42:37.772Z,33.72
2023-04-27T00:42:59.474Z,33.67
2023-04-27T00:43:21.192Z,33.68
2023-04-27T00:43:44.365Z,33.68
2023-04-27T00:44:06.328Z,33.94
2023-04-27T00:44:30.233Z,33.95
2023-04-27T00:44:51.818Z,33.75
2023-04-27T00:45:14.367Z,33.65
2023-04-27T00:45:41.422Z,33.79
2023-04-27T00:46:04.461Z,33.73
2023-04-27T00:46:27.866Z,33.56
2023-04-27T00:46:49.812Z,33.55
2023-04-27T00:47:12.176Z,34.01
2023-04-27T00:47:35.786Z,33.90
2023-04-27T00:47:58.592Z,33.92
2023-04-27T00:48:20.796Z,33.68
2023-04-27T00:48:43.047Z,33.67
2023-04-27T00:49:05.827Z,34.05
2023-04-27T00:49:27.814Z,34.18
2023-04-27T00:49:49.592Z,34.11
2023-04-27T00:50:12.159Z,34.24
2023-04-27T00:50:34.790Z,34.20
2023-04-27T00:50:57.474Z,34.47
2023-04-27T00:51:19.213Z,34.03
2023-04-27T00:51:40.908Z,34.23
2023-04-27T00:52:02.931Z,34.26
2023-04-27T00:52:27.803Z,34.56
2023-04-27T00:52:49.779Z,34.69
2023-04-27T00:53:11.942Z,34.21
2023-04-27T00:53:36.110Z,33.96
2023-04-27T00:53:59.646Z,33.81
2023-04-27T00:54:21.369Z,33.82
2023-04-27T00:54:43.339Z,33.75
2023-04-27T00:55:08.359Z,33.61
2023-04-27T00:55:30.914Z,33.76
2023-04-27T00:55:55.376Z,33.62
2023-04-27T00:56:17.496Z,33.55
2023-04-27T00:56:39.406Z,33.97
2023-04-27T00:57:02.284Z,33.87
2023-04-27T00:57:23.880Z,34.17
2023-04-27T00:57:45.565Z,33.71
2023-04-27T00:58:09.277Z,33.86
2023-04-27T00:58:31.242Z,34.04
2023-04-27T00:58:53.571Z,33.96
2023-04-27T00:59:15.983Z,33.80
2023-04-27T00:59:38.620Z,34.04
2023-04-27T01:00:01.016Z,33.84
2023-04-27T01:00:23.075Z,33.63
2023-04-27T01:00:44.677Z,33.61
2023-04-27T01:01:07.696Z,33.67
2023-04-27T01:01:30.345Z,33.65
2023-04-27T01:01:53.044Z,33.83
2023-04-27T01:02:15.039Z,33.93
2023-04-27T01:02:37.117Z,33.47
2023-04-27T01:03:01.211Z,33.76
2023-04-27T01:03:23.259Z,33.53
2023-04-27T01:03:45.310Z,33.90
2023-04-27T01:04:07.167Z,33.74
2023-04-27T01:04:29.992Z,33.66
2023-04-27T01:04:53.966Z,33.60
2023-04-27T01:05:15.742Z,33.85
2023-04-27T01:05:38.085Z,34.12
2023-04-27T01:06:01.612Z,34.40
2023-04-27T01:06:24.477Z,34.30
2023-04-27T01:06:46.226Z,34.14
2023-04-27T01:07:08.018Z,34.17
2023-04-27T01:07:30.686Z,34.01
2023-04-27T01:07:53.116Z,33.60
2023-04-27T01:08:14.944Z,33.50
2023-04-27T01:08:37.756Z,33.67
2023-04-27T01:09:00.466Z,33.86
2023-04-27T01:09:23.310Z,34.65
2023-04-27T01:09:45.202Z,34.14
2023-04-27T01:10:08.766Z,34.09
2023-04-27T01:10:31.531Z,34.48
2023-04-27T01:10:54.567Z,34.47
2023-04-27T01:11:17.211Z,34.29
2023-04-27T01:11:38.837Z,34.32
2023-04-27T01:12:03.282Z,34.34
2023-04-27T01:12:25.243Z,34.20
2023-04-27T01:12:47.737Z,34.31
2023-04-27T01:13:10.648Z,34.46
2023-04-27T01:13:34.416Z,34.40
2023-04-27T01:13:56.979Z,34.70
2023-04-27T01:14:21.005Z,34.36
2023-04-27T01:14:42.952Z,34.24
2023-04-27T01:15:07.512Z,34.57
2023-04-27T01:15:29.409Z,34.06
2023-04-27T01:15:51.040Z,34.13
2023-04-27T01:16:13.087Z,33.88
2023-04-27T01:16:36.121Z,33.92
2023-04-27T01:16:58.197Z,33.77
2023-04-27T01:17:19.810Z,33.81
2023-04-27T01:17:42.964Z,33.95
2023-04-27T01:18:05.766Z,34.07
2023-04-27T01:18:27.452Z,34.25
2023-04-27T01:18:51.418Z,34.14
2023-04-27T01:19:13.506Z,34.28
2023-04-27T01:19:36.539Z,34.94
2023-04-27T01:19:59.604Z,34.64
2023-04-27T01:20:22.160Z,34.46
2023-04-27T01:20:45.072Z,34.37
2023-04-27T01:21:07.262Z,34.33
2023-04-27T01:21:30.073Z,33.83
2023-04-27T01:21:53.592Z,33.76
2023-04-27T01:22:15.432Z,33.65
2023-04-27T01:22:37.213Z,33.74
2023-04-27T01:23:00.327Z,34.19
2023-04-27T01:23:24.004Z,34.06
2023-04-27T01:23:46.269Z,34.34
2023-04-27T01:24:09.021Z,34.54
2023-04-27T01:24:33.435Z,34.33
2023-04-27T01:24:55.196Z,34.33
2023-04-27T01:25:20.130Z,34.38
2023-04-27T01:25:41.784Z,34.08
2023-04-27T01:26:04.724Z,34.30
2023-04-27T01:26:26.800Z,34.40
2023-04-27T01:26:51.965Z,34.47
2023-04-27T01:27:13.845Z,34.70
2023-04-27T01:27:36.942Z,34.63
2023-04-27T01:27:58.595Z,34.90
2023-04-27T01:28:20.424Z,34.98
2023-04-27T01:28:42.001Z,34.70
2023-04-27T01:29:04.202Z,34.54
2023-04-27T01:29:26.828Z,34.80
2023-04-27T01:29:48.625Z,34.84
2023-04-27T01:30:10.621Z,34.74
2023-04-27T01:30:32.228Z,34.43
2023-04-27T01:30:55.147Z,34.12
2023-04-27T01:31:20.673Z,33.87
2023-04-27T01:31:43.444Z,33.95
2023-04-27T01:32:05.688Z,34.20
2023-04-27T01:32:28.359Z,34.17
2023-04-27T01:32:50.468Z,34.24
2023-04-27T01:33:14.197Z,34.78
2023-04-27T01:33:35.934Z,34.93
2023-04-27T01:33:58.450Z,34.79
2023-04-27T01:34:20.075Z,34.35
2023-04-27T01:34:42.600Z,34.18
2023-04-27T01:35:04.910Z,34.34
2023-04-27T01:35:28.458Z,34.52
2023-04-27T01:35:54.757Z,34.73
2023-04-27T01:36:16.775Z,34.84
2023-04-27T01:36:38.525Z,34.71
2023-04-27T01:37:01.085Z,34.49
2023-04-27T01:37:23.056Z,34.30
2023-04-27T01:37:45.990Z,33.94
2023-04-27T01:38:07.611Z,33.87
2023-04-27T01:38:33.312Z,34.00
2023-04-27T01:38:54.967Z,34.16
2023-04-27T01:39:16.675Z,34.25
2023-04-27T01:39:38.771Z,34.42
2023-04-27T01:40:03.036Z,34.42
2023-04-27T01:40:29.912Z,34.24
2023-04-27T01:40:51.551Z,34.60
2023-04-27T01:41:15.658Z,34.37
2023-04-27T01:41:37.355Z,34.45
2023-04-27T01:41:58.980Z,34.15
2023-04-27T01:42:21.579Z,33.86
2023-04-27T01:42:43.181Z,33.96
2023-04-27T01:43:05.192Z,34.17
2023-04-27T01:43:26.906Z,34.19
2023-04-27T01:43:49.957Z,34.50
2023-04-27T01:44:11.994Z,34.70
2023-04-27T01:44:33.737Z,34.71
2023-04-27T01:44:55.368Z,34.58
2023-04-27T01:45:17.002Z,34.55
2023-04-27T01:45:39.641Z,34.50
2023-04-27T01:46:06.057Z,34.88
2023-04-27T01:46:27.865Z,35.02
2023-04-27T01:46:49.654Z,35.06
2023-04-27T01:47:12.573Z,34.71
2023-04-27T01:47:35.582Z,34.71
2023-04-27T01:47:57.307Z,34.60
2023-04-27T01:48:19.138Z,34.49
2023-04-27T01:48:42.399Z,34.63
2023-04-27T01:49:05.971Z,34.37
2023-04-27T01:49:27.874Z,34.42
2023-04-27T01:49:51.202Z,34.67
2023-04-27T01:50:15.016Z,34.71
2023-04-27T01:50:36.646Z,34.56
2023-04-27T01:50:58.277Z,34.95
2023-04-27T01:51:20.581Z,34.92
2023-04-27T01:51:43.258Z,34.92
2023-04-27T01:52:04.853Z,34.81
2023-04-27T01:52:28.695Z,34.85
2023-04-27T01:52:50.619Z,35.08
2023-04-27T01:53:13.286Z,34.96
2023-04-27T01:53:36.301Z,34.73
2023-04-27T01:53:58.116Z,34.61
2023-04-27T01:54:20.719Z,35.08
2023-04-27T01:54:42.590Z,35.05
2023-04-27T01:55:06.272Z,35.26
2023-04-27T01:55:28.230Z,35.27
2023-04-27T01:55:49.948Z,35.63
2023-04-27T01:56:12.790Z,35.07
2023-04-27T01:56:35.077Z,35.06
2023-04-27T01:56:58.617Z,34.71
2023-04-27T01:57:20.311Z,34.71
2023-04-27T01:57:43.045Z,35.28
2023-04-27T01:58:04.766Z,35.39
2023-04-27T01:58:27.599Z,35.23
2023-04-27T01:58:49.270Z,34.74
2023-04-27T01:59:11.328Z,34.42
2023-04-27T01:59:34.031Z,34.45
2023-04-27T01:59:57.145Z,34.89
2023-04-27T02:00:19.543Z,35.15
2023-04-27T02:00:43.966Z,35.26
2023-04-27T02:01:06.627Z,35.15
2023-04-27T02:01:28.299Z,35.08
2023-04-27T02:01:50.036Z,34.82
2023-04-27T02:02:11.707Z,34.80
2023-04-27T02:02:33.657Z,35.17
2023-04-27T02:02:57.422Z,35.14
2023-04-27T02:03:19.475Z,35.34
2023-04-27T02:03:41.783Z,35.14
2023-04-27T02:04:04.284Z,35.38
2023-04-27T02:04:27.260Z,35.06
2023-04-27T02:04:49.068Z,35.35
2023-04-27T02:05:10.882Z,35.09
2023-04-27T02:05:32.466Z,35.18
2023-04-27T02:05:55.394Z,35.29
2023-04-27T02:06:17.211Z,35.33
2023-04-27T02:06:41.168Z,35.34
2023-04-27T02:07:03.038Z,35.34
2023-04-27T02:07:25.610Z,35.50
2023-04-27T02:07:47.203Z,35.44
2023-04-27T02:08:08.839Z,35.39
2023-04-27T02:08:30.561Z,35.43
2023-04-27T02:08:53.623Z,35.51
2023-04-27T02:09:16.501Z,35.60
2023-04-27T02:09:38.244Z,35.73
2023-04-27T02:09:59.894Z,35.92
2023-04-27T02:10:22.161Z,35.50
2023-04-27T02:10:44.759Z,35.44
2023-04-27T02:11:06.402Z,35.87
2023-04-27T02:11:28.146Z,35.87
2023-04-27T02:11:49.785Z,35.89
2023-04-27T02:12:11.617Z,35.77
2023-04-27T02:12:34.206Z,35.76
2023-04-27T02:12:56.906Z,35.56
2023-04-27T02:13:18.613Z,36.13
2023-04-27T02:13:40.423Z,36.20
2023-04-27T02:14:03.177Z,36.36
2023-04-27T02:14:27.924Z,36.14
2023-04-27T02:14:49.522Z,36.24
2023-04-27T02:15:11.188Z,36.00
2023-04-27T02:15:33.247Z,35.96
2023-04-27T02:15:56.188Z,36.17
2023-04-27T02:16:18.017Z,36.11
2023-04-27T02:16:39.754Z,36.17
2023-04-27T02:17:01.425Z,36.26
2023-04-27T02:17:24.055Z,36.31
2023-04-27T02:17:46.820Z,36.25
2023-04-27T02:18:08.967Z,36.07
2023-04-27T02:18:32.472Z,35.97
2023-04-27T02:18:55.509Z,36.17
2023-04-27T02:19:17.181Z,36.24
2023-04-27T02:19:38.916Z,36.07
2023-04-27T02:20:00.866Z,36.23
2023-04-27T02:20:23.662Z,36.27
2023-04-27T02:20:45.493Z,35.89
2023-04-27T02:21:09.364Z,35.78
2023-04-27T02:21:31.526Z,36.33
2023-04-27T02:21:54.104Z,35.97
2023-04-27T02:22:16.227Z,35.75
2023-04-27T02:22:41.797Z,36.05
2023-04-27T02:23:04.430Z,36.29
2023-04-27T02:23:26.187Z,36.21
2023-04-27T02:23:48.032Z,36.14
2023-04-27T02:24:11.015Z,36.16
2023-04-27T02:24:33.898Z,36.09
2023-04-27T02:24:55.819Z,36.20
2023-04-27T02:25:17.531Z,36.10
2023-04-27T02:25:42.748Z,36.57
2023-04-27T02:26:05.832Z,36.44
2023-04-27T02:26:29.441Z,36.65
2023-04-27T02:26:52.147Z,36.80
2023-04-27T02:27:13.746Z,36.52
2023-04-27T02:27:38.332Z,36.50
2023-04-27T02:28:00.882Z,36.54
2023-04-27T02:28:22.914Z,36.62
2023-04-27T02:28:45.154Z,37.04
2023-04-27T02:29:08.163Z,36.97
2023-04-27T02:29:32.339Z,36.58
2023-04-27T02:29:54.292Z,36.70
2023-04-27T02:30:17.900Z,36.56
2023-04-27T02:30:41.171Z,36.61
2023-04-27T02:31:04.266Z,36.71
2023-04-27T02:31:26.249Z,36.92
2023-04-27T02:31:47.980Z,36.96
2023-04-27T02:32:09.733Z,37.09
2023-04-27T02:32:33.295Z,36.82
2023-04-27T02:32:55.037Z,36.48
2023-04-27T02:33:17.147Z,36.50
2023-04-27T02:33:39.081Z,36.50
2023-04-27T02:34:01.755Z,36.65
2023-04-27T02:34:23.462Z,36.75
2023-04-27T02:34:46.466Z,36.88
2023-04-27T02:35:09.534Z,36.76
2023-04-27T02:35:33.561Z,36.88
2023-04-27T02:35:55.316Z,36.83
2023-04-27T02:36:16.931Z,36.85
2023-04-27T02:36:38.573Z,36.75
2023-04-27T02:37:01.304Z,37.01
2023-04-27T02:37:22.970Z,36.82
2023-04-27T02:37:44.780Z,36.83
2023-04-27T02:38:10.338Z,36.58
2023-04-27T02:38:34.112Z,36.32
2023-04-27T02:38:56.040Z,36.60
2023-04-27T02:39:18.969Z,36.35
2023-04-27T02:39:40.632Z,36.62
2023-04-27T02:40:03.984Z,36.69
2023-04-27T02:40:28.354Z,36.46
2023-04-27T02:40:53.666Z,36.43
2023-04-27T02:41:16.306Z,36.27
2023-04-27T02:41:37.928Z,36.22
2023-04-27T02:41:59.772Z,36.18
2023-04-27T02:42:21.981Z,36.35
2023-04-27T02:42:44.633Z,36.62
2023-04-27T02:43:06.220Z,36.65
2023-04-27T02:43:27.887Z,36.86
2023-04-27T02:43:50.452Z,36.57
2023-04-27T02:44:13.356Z,36.47
2023-04-27T02:44:34.988Z,36.23
2023-04-27T02:44:56.795Z,36.42
2023-04-27T02:45:18.464Z,36.52
2023-04-27T02:45:41.414Z,36.35
2023-04-27T02:46:03.271Z,36.22
2023-04-27T02:46:27.084Z,35.96
2023-04-27T02:46:50.015Z,35.89
2023-04-27T02:47:12.811Z,35.76
2023-04-27T02:47:36.070Z,35.73
2023-04-27T02:47:58.295Z,35.92
2023-04-27T02:48:20.430Z,35.84
2023-04-27T02:48:43.065Z,35.84
2023-04-27T02:49:04.735Z,36.02
2023-04-27T02:49:26.642Z,35.98
2023-04-27T02:49:48.374Z,35.83
2023-04-27T02:50:11.476Z,36.24
2023-04-27T02:50:33.206Z,35.89
2023-04-27T02:50:54.922Z,35.71
2023-04-27T02:51:17.524Z,35.83
2023-04-27T02:51:39.705Z,35.86
2023-04-27T02:52:01.400Z,35.88
2023-04-27T02:52:23.202Z,36.34
2023-04-27T02:52:45.923Z,36.57
2023-04-27T02:53:07.667Z,36.36
2023-04-27T02:53:29.343Z,36.49
2023-04-27T02:53:52.889Z,36.53
2023-04-27T02:54:14.553Z,36.55
2023-04-27T02:54:39.295Z,36.47
2023-04-27T02:55:01.047Z,36.40
2023-04-27T02:55:22.674Z,36.48
2023-04-27T02:55:48.168Z,36.35
2023-04-27T02:56:11.051Z,36.41
2023-04-27T02:56:32.725Z,35.99
2023-04-27T02:56:54.697Z,35.84
2023-04-27T02:57:16.363Z,35.73
2023-04-27T02:57:39.047Z,36.04
2023-04-27T02:58:00.953Z,36.18
2023-04-27T02:58:22.582Z,36.58
2023-04-27T02:58:44.886Z,36.67
2023-04-27T02:59:07.584Z,36.60
2023-04-27T02:59:29.266Z,36.29
2023-04-27T02:59:51.048Z,36.66
2023-04-27T03:00:13.560Z,36.76
2023-04-27T03:00:36.293Z,36.79
2023-04-27T03:00:57.953Z,36.65
2023-04-27T03:01:19.707Z,36.73
2023-04-27T03:01:41.643Z,36.79
2023-04-27T03:02:04.466Z,36.53
2023-04-27T03:02:26.183Z,36.14
2023-04-27T03:02:48.008Z,35.94
2023-04-27T03:03:10.038Z,36.19
2023-04-27T03:03:32.839Z,36.30
2023-04-27T03:03:54.853Z,36.44
2023-04-27T03:04:17.739Z,36.46
2023-04-27T03:04:39.518Z,36.41
2023-04-27T03:05:02.096Z,36.40
2023-04-27T03:05:26.041Z,36.50
2023-04-27T03:05:47.686Z,36.91
2023-04-27T03:06:09.366Z,36.75
2023-04-27T03:06:31.951Z,36.77
2023-04-27T03:06:53.496Z,36.69
2023-04-27T03:07:15.252Z,37.14
2023-04-27T03:07:36.888Z,37.12
2023-04-27T03:07:59.589Z,37.16
2023-04-27T03:08:21.181Z,37.05
2023-04-27T03:08:42.857Z,36.84
2023-04-27T03:09:05.552Z,36.73
2023-04-27T03:09:27.251Z,36.89
2023-04-27T03:09:50.310Z,37.40
2023-04-27T03:10:12.154Z,37.15
2023-04-27T03:10:33.741Z,37.09
2023-04-27T03:10:56.333Z,37.21
2023-04-27T03:11:18.010Z,37.19
2023-04-27T03:11:39.773Z,36.71
2023-04-27T03:12:02.816Z,36.47
2023-04-27T03:12:25.561Z,36.40
2023-04-27T03:12:47.224Z,36.42
2023-04-27T03:13:08.818Z,36.59
2023-04-27T03:13:30.402Z,36.59
2023-04-27T03:13:52.989Z,36.68
2023-04-27T03:14:14.665Z,36.83
2023-04-27T03:14:36.462Z,36.55
2023-04-27T03:15:00.008Z,36.69
2023-04-27T03:15:22.612Z,36.96
2023-04-27T03:15:44.315Z,36.42
2023-04-27T03:16:07.115Z,36.64
2023-04-27T03:16:28.929Z,36.65
2023-04-27T03:16:51.889Z,36.81
2023-04-27T03:17:14.779Z,36.85
2023-04-27T03:17:36.877Z,36.78
2023-04-27T03:17:58.763Z,37.01
2023-04-27T03:18:22.010Z,37.22
2023-04-27T03:18:43.706Z,37.08
2023-04-27T03:19:06.166Z,36.95
2023-04-27T03:19:28.900Z,37.03
2023-04-27T03:19:53.612Z,37.28
2023-04-27T03:20:19.154Z,37.15
2023-04-27T03:20:41.373Z,36.96
2023-04-27T03:21:07.476Z,36.84
2023-04-27T03:21:29.132Z,36.87
2023-04-27T03:21:51.011Z,37.00
2023-04-27T03:22:13.634Z,36.84
2023-04-27T03:22:37.260Z,36.73
2023-04-27T03:22:58.853Z,36.95
2023-04-27T03:23:20.589Z,36.91
2023-04-27T03:23:43.610Z,36.99
2023-04-27T03:24:06.001Z,37.00
2023-04-27T03:24:27.626Z,36.90
2023-04-27T03:24:50.667Z,36.95
2023-04-27T03:25:12.421Z,37.00
2023-04-27T03:25:35.003Z,37.03
2023-04-27T03:25:56.708Z,36.83
2023-04-27T03:26:18.657Z,36.98
2023-04-27T03:26:40.229Z,37.18
2023-04-27T03:27:03.230Z,37.53
2023-04-27T03:27:24.878Z,37.22
2023-04-27T03:27:46.494Z,37.32
2023-04-27T03:28:08.380Z,37.36
2023-04-27T03:28:29.978Z,37.17
2023-04-27T03:28:52.547Z,37.04
2023-04-27T03:29:14.658Z,37.06
2023-04-27T03:29:36.699Z,37.43
2023-04-27T03:29:59.712Z,37.13
2023-04-27T03:30:22.830Z,36.94
2023-04-27T03:30:44.475Z,36.74
2023-04-27T03:31:06.475Z,36.90
2023-04-27T03:31:28.117Z,37.25
2023-04-27T03:31:50.916Z,37.56
2023-04-27T03:32:12.712Z,37.54
2023-04-27T03:32:34.499Z,37.50
2023-04-27T03:32:56.425Z,37.36
2023-04-27T03:33:19.275Z,37.46
2023-04-27T03:33:41.204Z,37.63
2023-04-27T03:34:02.822Z,37.68
2023-04-27T03:34:24.473Z,37.69
2023-04-27T03:34:46.446Z,37.65
2023-04-27T03:35:10.114Z,37.63
2023-04-27T03:35:31.740Z,37.57
2023-04-27T03:35:56.968Z,37.73
2023-04-27T03:36:19.578Z,37.88
2023-04-27T03:36:41.319Z,37.89
2023-04-27T03:37:06.332Z,37.92
2023-04-27T03:37:32.638Z,37.87
2023-04-27T03:37:55.352Z,37.93
2023-04-27T03:38:17.105Z,37.96
2023-04-27T03:38:39.002Z,37.85
2023-04-27T03:39:01.241Z,37.88
2023-04-27T03:39:23.964Z,37.79
2023-04-27T03:39:45.735Z,37.79
2023-04-27T03:40:10.338Z,37.96
2023-04-27T03:40:31.943Z,37.68
2023-04-27T03:40:55.062Z,37.68
2023-04-27T03:41:16.719Z,37.95
2023-04-27T03:41:38.425Z,38.25
2023-04-27T03:42:00.108Z,37.93
2023-04-27T03:42:22.789Z,38.15
2023-04-27T03:42:44.961Z,37.98
2023-04-27T03:43:06.847Z,37.92
2023-04-27T03:43:29.070Z,37.99
2023-04-27T03:43:52.874Z,38.07
2023-04-27T03:44:15.816Z,38.05
2023-04-27T03:44:38.604Z,37.99
2023-04-27T03:45:01.119Z,38.13
2023-04-27T03:45:22.783Z,38.04
2023-04-27T03:45:45.421Z,37.97
2023-04-27T03:46:08.461Z,37.86
2023-04-27T03:46:30.302Z,37.64
2023-04-27T03:46:52.272Z,37.43
2023-04-27T03:47:14.870Z,37.32
2023-04-27T03:47:37.172Z,37.62
2023-04-27T03:47:58.888Z,38.08
2023-04-27T03:48:21.130Z,38.35
2023-04-27T03:48:43.961Z,38.08
2023-04-27T03:49:05.835Z,38.04
2023-04-27T03:49:28.065Z,37.91
2023-04-27T03:49:50.915Z,38.24
2023-04-27T03:50:13.479Z,38.01
2023-04-27T03:50:35.321Z,37.93
2023-04-27T03:50:56.959Z,37.72
2023-04-27T03:51:19.133Z,37.96
2023-04-27T03:51:43.941Z,38.06
2023-04-27T03:52:05.911Z,38.19
2023-04-27T03:52:29.482Z,38.11
2023-04-27T03:52:51.177Z,37.95
2023-04-27T03:53:13.514Z,38.36
2023-04-27T03:53:38.258Z,38.49
2023-04-27T03:54:01.333Z,38.27
2023-04-27T03:54:23.722Z,38.44
2023-04-27T03:54:45.489Z,38.27
2023-04-27T03:55:10.670Z,38.39
2023-04-27T03:55:37.584Z,38.37
2023-04-27T03:55:59.476Z,38.45
2023-04-27T03:56:22.727Z,38.46
2023-04-27T03:56:44.470Z,38.35
2023-04-27T03:57:06.623Z,38.19
2023-04-27T03:57:30.620Z,38.19
2023-04-27T03:57:53.204Z,38.31
2023-04-27T03:58:17.342Z,38.13
2023-04-27T03:59:04.613Z,38.10
2023-04-27T03:59:30.747Z,38.23
2023-04-27T03:59:52.531Z,38.49
2023-04-27T04:00:15.740Z,38.65
2023-04-27T04:00:37.962Z,38.54
2023-04-27T04:01:00.510Z,38.58
2023-04-27T04:01:24.764Z,38.49
2023-04-27T04:01:46.389Z,38.49
2023-04-27T04:02:09.542Z,38.61
2023-04-27T04:02:33.193Z,38.52
2023-04-27T04:02:55.119Z,38.36
2023-04-27T04:03:17.455Z,38.41
2023-04-27T04:03:39.519Z,38.44
2023-04-27T04:04:04.325Z,38.64
2023-04-27T04:04:27.038Z,38.46
2023-04-27T04:04:48.988Z,38.27
2023-04-27T04:05:10.948Z,38.34
2023-04-27T04:05:33.663Z,38.67
2023-04-27T04:05:55.315Z,38.82
2023-04-27T04:06:17.360Z,38.78
2023-04-27T04:06:40.067Z,38.81
2023-04-27T04:07:03.074Z,38.82
2023-04-27T04:07:24.718Z,38.75
2023-04-27T04:07:46.376Z,38.69
2023-04-27T04:08:09.729Z,38.81
2023-04-27T04:08:34.025Z,38.76
2023-04-27T04:08:58.009Z,38.68
2023-04-27T04:09:23.956Z,38.67
2023-04-27T04:09:46.852Z,38.43
2023-04-27T04:10:11.386Z,38.50
2023-04-27T04:10:33.082Z,38.67
2023-04-27T04:10:54.771Z,38.60
2023-04-27T04:11:17.501Z,38.50
2023-04-27T04:11:39.235Z,38.54
2023-04-27T04:12:02.040Z,38.34
2023-04-27T04:12:24.157Z,38.09
2023-04-27T04:12:46.856Z,38.54
2023-04-27T04:13:08.886Z,38.73
2023-04-27T04:13:31.584Z,38.81
2023-04-27T04:13:54.597Z,38.73
2023-04-27T04:14:16.327Z,38.80
2023-04-27T04:14:38.044Z,38.96
2023-04-27T04:14:59.847Z,38.62
2023-04-27T04:15:23.195Z,38.86
2023-04-27T04:15:47.110Z,38.72
2023-04-27T04:16:09.870Z,38.74
2023-04-27T04:16:33.578Z,38.82
2023-04-27T04:16:56.905Z,38.64
2023-04-27T04:17:18.669Z,38.88
2023-04-27T04:17:41.596Z,38.94
2023-04-27T04:18:03.724Z,39.00
2023-04-27T04:18:26.481Z,39.07
2023-04-27T04:18:48.968Z,38.88
2023-04-27T04:19:11.321Z,38.92
2023-04-27T04:19:34.129Z,38.85
2023-04-27T04:19:57.202Z,38.78
2023-04-27T04:20:18.896Z,38.82
2023-04-27T04:20:40.832Z,38.86
2023-04-27T04:21:03.285Z,38.70
2023-04-27T04:21:25.977Z,38.75
2023-04-27T04:21:48.151Z,38.72
2023-04-27T04:22:09.806Z,38.76
2023-04-27T04:22:31.418Z,38.55
2023-04-27T04:22:54.095Z,38.55
2023-04-27T04:23:15.866Z,38.85
2023-04-27T04:23:38.030Z,38.67
2023-04-27T04:23:59.793Z,38.69
2023-04-27T04:24:22.618Z,38.68
2023-04-27T04:24:44.588Z,38.46
2023-04-27T04:25:07.246Z,38.55
2023-04-27T04:25:30.284Z,38.46
2023-04-27T04:25:52.295Z,38.73
2023-04-27T04:26:16.687Z,38.62
2023-04-27T04:26:39.395Z,38.76
2023-04-27T04:27:01.037Z,38.87
2023-04-27T04:27:22.702Z,38.71
2023-04-27T04:27:44.653Z,38.52
2023-04-27T04:28:07.418Z,38.31
2023-04-27T04:28:29.153Z,38.16
2023-04-27T04:28:50.755Z,38.00
2023-04-27T04:29:12.673Z,38.14
2023-04-27T04:29:34.562Z,38.32
2023-04-27T04:30:00.101Z,38.53
2023-04-27T04:30:23.212Z,38.37
2023-04-27T04:30:46.340Z,38.35
2023-04-27T04:31:09.621Z,38.27
2023-04-27T04:31:33.510Z,38.13
2023-04-27T04:31:56.171Z,38.42
2023-04-27T04:32:19.343Z,38.27
2023-04-27T04:32:41.569Z,38.33
2023-04-27T04:33:05.471Z,38.33
2023-04-27T04:33:27.227Z,38.53
2023-04-27T04:33:50.053Z,38.42
2023-04-27T04:34:11.663Z,38.33
2023-04-27T04:34:33.605Z,38.36
2023-04-27T04:34:56.692Z,38.36
2023-04-27T04:35:19.714Z,38.44
2023-04-27T04:35:41.497Z,38.35
2023-04-27T04:36:04.984Z,38.56
2023-04-27T04:36:28.477Z,38.41
2023-04-27T04:36:51.721Z,38.14
2023-04-27T04:37:14.715Z,38.33
2023-04-27T04:37:36.612Z,38.26
2023-04-27T04:37:58.406Z,38.34
2023-04-27T04:38:23.378Z,38.21
2023-04-27T04:38:45.569Z,38.33
2023-04-27T04:39:07.316Z,38.44
2023-04-27T04:39:31.090Z,37.90
2023-04-27T04:39:53.768Z,37.80
2023-04-27T04:40:15.709Z,37.92
2023-04-27T04:40:41.034Z,38.59
2023-04-27T04:41:03.683Z,38.91
2023-04-27T04:41:28.077Z,38.82
2023-04-27T04:41:49.914Z,38.83
2023-04-27T04:42:12.608Z,38.52
2023-04-27T04:42:37.020Z,38.35
2023-04-27T04:42:58.962Z,38.10
2023-04-27T04:43:21.470Z,38.53
2023-04-27T04:43:43.175Z,38.73
2023-04-27T04:44:05.424Z,38.76
2023-04-27T04:44:28.081Z,38.41
2023-04-27T04:44:49.998Z,38.19
2023-04-27T04:45:11.801Z,38.69
2023-04-27T04:45:33.411Z,38.82
2023-04-27T04:45:56.080Z,38.70
2023-04-27T04:46:17.749Z,38.60
2023-04-27T04:46:39.421Z,38.35
2023-04-27T04:47:02.085Z,38.18
2023-04-27T04:47:23.827Z,38.02
2023-04-27T04:47:47.364Z,38.43
2023-04-27T04:48:10.286Z,38.72
2023-04-27T04:48:33.075Z,38.32
2023-04-27T04:48:55.065Z,38.33
2023-04-27T04:49:18.040Z,38.33
2023-04-27T04:49:39.936Z,38.32
2023-04-27T04:50:02.644Z,38.20
2023-04-27T04:50:26.920Z,38.04
2023-04-27T04:50:48.877Z,38.38
2023-04-27T04:51:10.633Z,38.42